Time;durP1;ratioP1;P1;durP2;ratioP2;P2;SDS_P1;SDS_P2;PMS_P1;PMS_P2;Temp;Humidity;BMP_temperature;BMP_pressure;BME280_temperature;BME280_humidity;BME280_pressure;Samples;Min_cycle;Max_cycle;Signal;HPM_P1;HPM_P2
2021/06/12 00:00:15;;;;;;;3.50;1.10;;;24.50;60.50;;;;;;5035277;28;20030;-62
2021/06/12 00:02:42;;;;;;;1.27;1.00;;;24.00;60.20;;;;;;5035202;28;20025;-62
2021/06/12 00:05:09;;;;;;;1.88;1.05;;;24.00;60.20;;;;;;5035442;28;20101;-62
2021/06/12 00:07:34;;;;;;;0.93;0.90;;;24.00;60.10;;;;;;5035052;28;20037;-62
2021/06/12 00:10:02;;;;;;;1.60;0.95;;;24.00;60.10;;;;;;5035336;28;20009;-62
2021/06/12 00:12:27;;;;;;;1.70;1.27;;;24.10;60.20;;;;;;5035330;28;20433;-62
2021/06/12 00:14:53;;;;;;;2.10;1.02;;;24.40;60.40;;;;;;5034689;28;20045;-62
2021/06/12 00:17:19;;;;;;;3.20;1.10;;;24.00;60.20;;;;;;5035151;28;20021;-62
2021/06/12 00:19:44;;;;;;;2.45;1.17;;;24.00;60.20;;;;;;5035214;28;20025;-62
2021/06/12 00:22:10;;;;;;;2.85;1.40;;;24.00;60.20;;;;;;5035135;28;20025;-62
2021/06/12 00:24:35;;;;;;;3.42;1.40;;;24.00;60.20;;;;;;5035016;28;20018;-62
2021/06/12 00:27:01;;;;;;;2.22;1.58;;;24.40;60.40;;;;;;5034442;28;20057;-61
2021/06/12 00:29:27;;;;;;;1.48;0.95;;;24.00;60.20;;;;;;5034657;28;20113;-62
2021/06/12 00:31:52;;;;;;;2.38;1.10;;;24.30;60.30;;;;;;5033355;28;20022;-62
2021/06/12 00:34:18;;;;;;;2.15;1.25;;;24.20;60.30;;;;;;5034576;28;20021;-62
2021/06/12 00:36:43;;;;;;;2.17;1.33;;;24.20;60.30;;;;;;5034523;28;20029;-62
2021/06/12 00:39:09;;;;;;;1.58;1.23;;;23.90;60.10;;;;;;5034572;28;20049;-62
2021/06/12 00:41:35;;;;;;;1.60;1.10;;;23.90;60.10;;;;;;5034672;28;20018;-62
2021/06/12 00:44:00;;;;;;;2.53;1.13;;;23.90;60.10;;;;;;5034445;28;20022;-61
2021/06/12 00:46:26;;;;;;;1.20;1.00;;;24.40;60.40;;;;;;5034202;28;20037;-62
2021/06/12 00:48:53;;;;;;;2.10;1.23;;;23.90;60.20;;;;;;5034341;28;20026;-62
2021/06/12 00:51:21;;;;;;;1.98;1.10;;;24.40;60.40;;;;;;5034614;28;20108;-62
2021/06/12 00:53:47;;;;;;;1.40;1.10;;;23.80;84.30;;;;;;5016715;28;20030;-61
2021/06/12 00:56:17;;;;;;;2.58;1.27;;;24.10;60.30;;;;;;5033346;28;20483;-61
2021/06/12 00:58:43;;;;;;;2.00;1.05;;;24.20;60.30;;;;;;5034468;28;20122;-61
2021/06/12 01:01:10;;;;;;;2.05;1.00;;;23.90;60.20;;;;;;5034152;28;20093;-61
2021/06/12 01:03:39;;;;;;;2.30;1.50;;;24.40;60.40;;;;;;5034133;28;20033;-62
2021/06/12 01:06:06;;;;;;;2.45;1.15;;;24.10;60.30;;;;;;5034241;28;20035;-61
2021/06/12 01:08:32;;;;;;;1.55;1.40;;;23.90;60.20;;;;;;5034009;28;20034;-61
2021/06/12 01:10:58;;;;;;;1.98;1.30;;;24.00;60.20;;;;;;5034209;28;20104;-61
2021/06/12 01:14:06;;;;;;;2.55;1.30;;;23.90;60.20;;;;;;5034151;28;20060;-61
2021/06/12 01:16:36;;;;;;;2.28;1.35;;;23.90;60.10;;;;;;5032547;28;20061;-61
2021/06/12 01:19:17;;;;;;;0.77;0.77;;;23.90;60.10;;;;;;5034096;28;20022;-61
2021/06/12 01:21:47;;;;;;;1.50;1.40;;;23.90;60.20;;;;;;5033767;28;20033;-61
2021/06/12 01:24:42;;;;;;;1.10;1.00;;;24.40;60.50;;;;;;5033740;28;20017;-61
2021/06/12 01:27:24;;;;;;;1.42;1.33;;;23.80;60.10;;;;;;5032516;28;20049;-61
2021/06/12 01:30:28;;;;;;;3.53;1.20;;;23.60;60.00;;;;;;5032682;28;20030;-61
2021/06/12 01:33:07;;;;;;;1.73;1.10;;;23.80;60.10;;;;;;5031121;28;20033;-61
2021/06/12 01:35:59;;;;;;;1.55;1.30;;;23.90;60.20;;;;;;5033289;28;20112;-61
2021/06/12 01:38:30;;;;;;;1.75;1.40;;;23.80;60.10;;;;;;5033681;28;20028;-61
2021/06/12 01:40:59;;;;;;;1.15;0.95;;;23.80;60.10;;;;;;5032192;28;20029;-61
2021/06/12 01:43:25;;;;;;;1.20;1.10;;;23.80;60.10;;;;;;5033608;28;20191;-61
2021/06/12 01:45:52;;;;;;;1.67;1.20;;;23.80;60.20;;;;;;5033588;28;20037;-61
2021/06/12 01:48:19;;;;;;;1.67;1.23;;;23.80;60.20;;;;;;5033654;28;20040;-61
2021/06/12 01:50:45;;;;;;;1.23;1.02;;;24.20;60.40;;;;;;5033600;28;20037;-61
2021/06/12 01:53:16;;;;;;;1.52;1.38;;;23.80;60.20;;;;;;5033553;28;20500;-61
2021/06/12 01:55:42;;;;;;;1.85;1.08;;;24.10;60.40;;;;;;5033409;28;20097;-61
2021/06/12 01:58:15;;;;;;;1.63;1.30;;;23.80;60.30;;;;;;5033100;28;20040;-61
2021/06/12 02:00:41;;;;;;;1.42;1.27;;;23.80;60.20;;;;;;5033102;28;20025;-61
2021/06/12 02:03:09;;;;;;;2.45;1.67;;;23.90;60.30;;;;;;5033004;28;20025;-61
2021/06/12 02:05:35;;;;;;;2.30;1.52;;;24.10;60.40;;;;;;5033063;28;20025;-61
2021/06/12 02:08:02;;;;;;;1.83;1.50;;;23.80;60.20;;;;;;5033150;28;20037;-61
2021/06/12 02:10:30;;;;;;;1.77;1.40;;;23.90;60.30;;;;;;5033148;28;20045;-61
2021/06/12 02:12:56;;;;;;;1.10;1.00;;;23.80;60.30;;;;;;5033103;28;20120;-62
2021/06/12 02:15:24;;;;;;;2.17;1.27;;;23.90;60.30;;;;;;5032734;28;20135;-61
2021/06/12 02:17:52;;;;;;;2.47;1.40;;;23.80;60.30;;;;;;5032786;28;20052;-61
2021/06/12 02:20:18;;;;;;;1.92;1.35;;;24.30;60.70;;;;;;5032647;28;20392;-61
2021/06/12 02:22:47;;;;;;;2.10;1.35;;;24.40;60.60;;;;;;5032660;28;20476;-62
2021/06/12 02:25:14;;;;;;;1.65;1.08;;;23.90;60.40;;;;;;5032428;28;20026;-60
2021/06/12 02:27:44;;;;;;;1.70;1.50;;;23.60;60.20;;;;;;5032542;28;20589;-61
2021/06/12 02:30:11;;;;;;;1.73;1.30;;;24.20;60.50;;;;;;5032649;28;20025;-61
2021/06/12 02:32:44;;;;;;;2.38;1.40;;;23.70;60.30;;;;;;5032507;28;20388;-61
2021/06/12 02:35:11;;;;;;;1.42;1.25;;;23.80;60.40;;;;;;5032875;28;20018;-62
2021/06/12 02:37:38;;;;;;;2.67;1.40;;;23.70;60.30;;;;;;5032736;28;20372;-61
2021/06/12 02:40:06;;;;;;;2.58;1.60;;;23.70;60.30;;;;;;5032398;28;20428;-61
2021/06/12 02:42:32;;;;;;;1.60;1.42;;;23.70;60.30;;;;;;5032474;28;20025;-61
2021/06/12 02:44:57;;;;;;;1.95;1.40;;;23.70;60.40;;;;;;5032737;28;20029;-61
2021/06/12 02:47:27;;;;;;;1.45;1.20;;;23.50;60.30;;;;;;5032508;28;20037;-61
2021/06/12 02:49:56;;;;;;;1.40;1.30;;;23.70;60.40;;;;;;5032491;28;20026;-61
2021/06/12 02:52:25;;;;;;;2.45;1.33;;;23.70;60.40;;;;;;5032458;28;20444;-61
2021/06/12 02:54:51;;;;;;;1.73;1.40;;;24.30;60.80;;;;;;5032364;28;20096;-62
2021/06/12 02:57:18;;;;;;;1.58;1.33;;;23.70;60.40;;;;;;5032655;28;20035;-61
2021/06/12 02:59:45;;;;;;;1.90;1.25;;;23.70;60.40;;;;;;5032361;28;20104;-61
2021/06/12 03:02:13;;;;;;;2.03;1.30;;;23.70;60.40;;;;;;5032565;28;20144;-61
2021/06/12 03:04:42;;;;;;;2.53;1.25;;;24.00;60.60;;;;;;5032531;28;20372;-61
2021/06/12 03:07:10;;;;;;;2.50;1.27;;;23.60;60.40;;;;;;5032176;28;20129;-62
2021/06/12 03:09:37;;;;;;;1.85;1.45;;;23.60;60.40;;;;;;5032577;28;20040;-61
2021/06/12 03:12:06;;;;;;;2.63;1.60;;;23.60;60.40;;;;;;5032580;28;20109;-61
2021/06/12 03:14:33;;;;;;;2.70;1.40;;;23.60;60.40;;;;;;5032451;28;20030;-61
2021/06/12 03:16:59;;;;;;;2.42;1.67;;;23.60;60.40;;;;;;5032525;28;20072;-62
2021/06/12 03:19:26;;;;;;;2.67;1.67;;;23.70;85.20;;;;;;5032405;28;20087;-61
2021/06/12 03:21:52;;;;;;;1.77;1.60;;;23.90;60.60;;;;;;5032158;28;20018;-61
2021/06/12 03:24:19;;;;;;;1.40;1.30;;;23.60;60.50;;;;;;5032145;28;20083;-62
2021/06/12 03:26:46;;;;;;;2.40;1.48;;;23.80;60.60;;;;;;5031942;28;20440;-61
2021/06/12 03:29:13;;;;;;;2.83;1.67;;;23.80;60.60;;;;;;5032339;28;20045;-61
2021/06/12 03:31:39;;;;;;;2.35;1.63;;;23.60;60.50;;;;;;5032258;28;20108;-61
2021/06/12 03:34:06;;;;;;;1.75;1.60;;;23.80;60.70;;;;;;5032061;28;20053;-61
2021/06/12 03:36:32;;;;;;;2.22;1.60;;;23.60;60.60;;;;;;5031996;28;20473;-61
2021/06/12 03:38:57;;;;;;;1.65;1.50;;;24.00;60.80;;;;;;5031973;28;20028;-61
2021/06/12 03:41:24;;;;;;;1.95;1.65;;;23.70;60.60;;;;;;5032200;28;20021;-61
2021/06/12 03:43:51;;;;;;;1.85;1.52;;;23.60;60.60;;;;;;5031899;28;20425;-61
2021/06/12 03:46:18;;;;;;;2.95;1.80;;;23.60;60.60;;;;;;5031715;28;20469;-61
2021/06/12 03:48:45;;;;;;;2.38;1.27;;;23.60;60.60;;;;;;5032161;28;20029;-61
2021/06/12 03:51:13;;;;;;;1.48;1.20;;;23.60;60.70;;;;;;5033851;28;20075;-61
2021/06/12 03:53:47;;;;;;;2.90;1.88;;;23.60;60.70;;;;;;5035412;28;20018;-61
2021/06/12 03:56:18;;;;;;;1.80;1.60;;;23.60;60.70;;;;;;5035341;28;20105;-61
2021/06/12 03:58:46;;;;;;;1.67;1.58;;;23.60;60.70;;;;;;5035602;28;20033;-61
2021/06/12 04:01:16;;;;;;;1.70;1.60;;;24.20;61.00;;;;;;5035143;28;20491;-61
2021/06/12 04:03:42;;;;;;;;;;;23.60;60.70;;;;;;5035553;28;20029;-61
2021/06/12 04:06:08;;;;;;;3.08;1.70;;;23.50;60.60;;;;;;5035421;28;19912;-61
2021/06/12 04:08:34;;;;;;;1.98;1.40;;;24.20;61.00;;;;;;5035300;28;20030;-61
2021/06/12 04:10:59;;;;;;;1.90;1.25;;;23.40;60.60;;;;;;5035033;28;20495;-61
2021/06/12 04:13:26;;;;;;;2.13;1.63;;;23.60;60.70;;;;;;5033718;28;20033;-61
2021/06/12 04:15:52;;;;;;;2.10;1.58;;;24.10;61.00;;;;;;5035280;28;20029;-61
2021/06/12 04:18:18;;;;;;;2.30;1.60;;;23.50;60.70;;;;;;5035210;28;20027;-61
2021/06/12 04:20:44;;;;;;;2.22;2.00;;;24.00;61.10;;;;;;5035116;28;20017;-61
2021/06/12 04:23:09;;;;;;;3.13;1.95;;;23.50;60.70;;;;;;5035111;28;20041;-61
2021/06/12 04:25:35;;;;;;;2.63;1.75;;;23.50;60.70;;;;;;5034826;28;20120;-61
2021/06/12 04:28:01;;;;;;;3.60;1.88;;;23.50;60.70;;;;;;5034898;28;20026;-61
2021/06/12 04:30:27;;;;;;;3.05;1.95;;;23.50;60.70;;;;;;5034975;28;20538;-61
2021/06/12 04:32:52;;;;;;;1.92;1.65;;;23.50;60.70;;;;;;5034636;28;20490;-61
2021/06/12 04:35:18;;;;;;;4.28;1.83;;;23.90;60.90;;;;;;5034912;28;20022;-61
2021/06/12 04:37:44;;;;;;;1.85;1.50;;;24.10;61.10;;;;;;5034764;28;20030;-60
2021/06/12 04:40:12;;;;;;;2.20;1.70;;;23.30;60.60;;;;;;5034867;28;20458;-61
2021/06/12 04:42:39;;;;;;;2.50;1.90;;;23.50;60.70;;;;;;5034744;28;20026;-61
2021/06/12 04:45:06;;;;;;;1.60;1.50;;;23.40;85.10;;;;;;5033000;28;20017;-60
2021/06/12 04:47:32;;;;;;;2.08;1.40;;;23.50;60.70;;;;;;5034557;28;20094;-61
2021/06/12 04:49:58;;;;;;;2.20;1.92;;;23.50;60.70;;;;;;5034494;28;20014;-61
2021/06/12 04:52:24;;;;;;;1.77;1.38;;;24.00;61.00;;;;;;5034559;28;20021;-61
2021/06/12 04:54:50;;;;;;;1.70;1.60;;;23.50;60.70;;;;;;5034157;28;20017;-61
2021/06/12 04:57:16;;;;;;;3.25;1.60;;;23.80;60.90;;;;;;5034431;28;20031;-61
2021/06/12 04:59:41;;;;;;;2.17;1.60;;;23.50;60.80;;;;;;5034186;28;20455;-61
2021/06/12 05:02:07;;;;;;;4.18;1.75;;;23.50;60.70;;;;;;5034197;28;20471;-61
2021/06/12 05:04:32;;;;;;;1.50;1.40;;;23.90;61.00;;;;;;5034294;28;20033;-61
2021/06/12 05:06:58;;;;;;;1.70;1.60;;;23.90;61.00;;;;;;5034232;28;20032;-61
2021/06/12 05:09:24;;;;;;;4.80;1.92;;;23.60;60.80;;;;;;5034199;28;20022;-61
2021/06/12 05:11:50;;;;;;;2.30;1.75;;;23.80;61.00;;;;;;5034221;28;20490;-61
2021/06/12 05:14:17;;;;;;;2.13;1.55;;;23.50;60.80;;;;;;5034142;28;20057;-62
2021/06/12 05:16:42;;;;;;;1.70;1.60;;;23.50;60.70;;;;;;5034103;28;20022;-61
2021/06/12 05:19:08;;;;;;;2.72;1.88;;;24.10;61.10;;;;;;5034078;28;20350;-60
2021/06/12 05:21:39;;;;;;;2.15;1.48;;;23.50;60.80;;;;;;5034091;28;20441;-60
2021/06/12 05:24:06;;;;;;;2.30;1.75;;;23.50;60.80;;;;;;5034042;28;20116;-61
2021/06/12 05:26:32;;;;;;;2.45;1.42;;;23.40;60.70;;;;;;5033421;28;20046;-60
2021/06/12 05:28:58;;;;;;;2.70;1.58;;;23.40;60.80;;;;;;5032309;28;20044;-60
2021/06/12 05:31:24;;;;;;;1.27;1.17;;;23.40;60.80;;;;;;5033829;28;20457;-61
2021/06/12 05:33:50;;;;;;;1.65;1.55;;;23.60;60.80;;;;;;5033477;28;20041;-61
2021/06/12 05:36:16;;;;;;;4.30;1.50;;;23.40;60.80;;;;;;5033785;28;20135;-61
2021/06/12 05:38:42;;;;;;;2.38;1.80;;;23.40;60.70;;;;;;5033621;28;20060;-60
2021/06/12 05:41:08;;;;;;;1.33;1.20;;;23.80;60.90;;;;;;5033665;28;20057;-61
2021/06/12 05:43:34;;;;;;;1.73;1.63;;;23.50;60.70;;;;;;5033647;28;20491;-60
2021/06/12 05:46:00;;;;;;;2.50;1.70;;;23.50;60.70;;;;;;5033153;28;20393;-60
2021/06/12 05:48:25;;;;;;;2.83;1.90;;;23.50;60.70;;;;;;5033434;28;20083;-60
2021/06/12 05:50:51;;;;;;;1.83;1.63;;;23.40;60.60;;;;;;5033234;28;20044;-60
2021/06/12 05:53:17;;;;;;;2.10;1.50;;;23.40;86.40;;;;;;5033454;28;20037;-61
2021/06/12 05:55:43;;;;;;;1.75;1.33;;;23.50;60.60;;;;;;5033404;28;20030;-60
2021/06/12 05:58:09;;;;;;;1.75;1.30;;;23.50;60.60;;;;;;5033362;28;20025;-60
2021/06/12 06:00:35;;;;;;;1.88;1.55;;;23.40;60.50;;;;;;5033020;28;20071;-61
2021/06/12 06:03:01;;;;;;;1.80;1.33;;;23.50;60.60;;;;;;5033275;28;20025;-60
2021/06/12 06:05:26;;;;;;;1.55;1.35;;;23.50;60.50;;;;;;5032945;28;20018;-61
2021/06/12 06:07:52;;;;;;;2.72;1.55;;;23.50;60.60;;;;;;5033123;28;20525;-61
2021/06/12 06:10:17;;;;;;;4.57;1.67;;;23.50;60.60;;;;;;5033117;28;20020;-60
2021/06/12 06:12:43;;;;;;;1.65;1.55;;;24.10;60.90;;;;;;5031527;28;20108;-60
2021/06/12 06:15:11;;;;;;;1.88;1.40;;;23.40;60.40;;;;;;5032760;28;20487;-60
2021/06/12 06:17:38;;;;;;;1.98;1.40;;;23.40;60.50;;;;;;5032839;28;20519;-61
2021/06/12 06:20:05;;;;;;;1.80;1.33;;;23.50;60.50;;;;;;5032934;28;20388;-60
2021/06/12 06:22:30;;;;;;;1.52;1.40;;;23.50;60.40;;;;;;5032703;28;20373;-61
2021/06/12 06:24:56;;;;;;;2.08;1.60;;;23.80;60.60;;;;;;5032783;28;20024;-61
2021/06/12 06:27:22;;;;;;;1.75;1.30;;;23.50;60.50;;;;;;5032577;28;20091;-60
2021/06/12 06:29:47;;;;;;;1.60;1.42;;;23.50;60.40;;;;;;5033033;28;20129;-61
2021/06/12 06:32:14;;;;;;;2.38;1.50;;;23.50;60.40;;;;;;5032854;28;20018;-61
2021/06/12 06:34:40;;;;;;;1.95;1.58;;;23.50;60.50;;;;;;5032786;28;20032;-61
2021/06/12 06:37:06;;;;;;;1.60;1.50;;;;;;;;;;5032981;28;20049;-61
2021/06/12 06:39:32;;;;;;;2.25;1.38;;;23.50;60.10;;;;;;5033052;28;20029;-61
2021/06/12 06:41:58;;;;;;;1.63;1.52;;;23.50;61.00;;;;;;5032841;28;20576;-61
2021/06/12 06:44:24;;;;;;;2.15;1.45;;;23.40;60.60;;;;;;5032834;28;20083;-61
2021/06/12 06:46:50;;;;;;;2.30;1.30;;;23.50;61.00;;;;;;5032713;28;20576;-61
2021/06/12 06:49:16;;;;;;;1.73;1.50;;;23.50;61.00;;;;;;5031171;28;20500;-60
2021/06/12 06:51:41;;;;;;;1.42;1.30;;;23.50;61.00;;;;;;5032626;28;20018;-60
2021/06/12 06:54:07;;;;;;;1.70;1.30;;;23.50;60.20;;;;;;5032542;28;20029;-60
2021/06/12 06:56:33;;;;;;;2.03;1.40;;;23.50;60.10;;;;;;5032806;28;20024;-61
2021/06/12 06:58:59;;;;;;;2.97;1.33;;;23.50;60.10;;;;;;5032704;28;20044;-61
2021/06/12 07:01:24;;;;;;;4.20;1.58;;;23.50;60.00;;;;;;5032313;28;20032;-61
2021/06/12 07:03:50;;;;;;;1.80;1.20;;;23.50;60.20;;;;;;5032302;28;20017;-61
2021/06/12 07:06:16;;;;;;;3.53;1.50;;;23.50;60.20;;;;;;5032331;28;20032;-62
2021/06/12 07:08:41;;;;;;;1.95;1.55;;;23.50;60.60;;;;;;5031390;28;20064;-61
2021/06/12 07:11:07;;;;;;;2.25;1.42;;;23.50;60.50;;;;;;5032251;28;20026;-61
2021/06/12 07:13:34;;;;;;;2.13;1.35;;;23.50;60.40;;;;;;5032619;28;20018;-61
2021/06/12 07:16:00;;;;;;;1.48;1.38;;;23.50;60.20;;;;;;5032561;28;20030;-61
2021/06/12 07:18:26;;;;;;;2.72;1.30;;;23.60;60.00;;;;;;5032279;28;20034;-61
2021/06/12 07:20:52;;;;;;;1.58;1.20;;;23.60;60.00;;;;;;5032175;28;20014;-62
2021/06/12 07:23:17;;;;;;;2.53;1.60;;;23.60;59.80;;;;;;5031175;28;20071;-59
2021/06/12 07:25:47;;;;;;;1.85;1.45;;;23.60;59.80;;;;;;5033451;28;20018;-59
2021/06/12 07:28:14;;;;;;;2.50;1.27;;;23.50;60.20;;;;;;5036020;28;20112;-59
2021/06/12 07:30:40;;;;;;;3.78;1.58;;;23.50;60.00;;;;;;5035923;28;20071;-60
2021/06/12 07:33:08;;;;;;;3.40;1.48;;;23.60;59.80;;;;;;5035859;28;20122;-60
2021/06/12 07:35:34;;;;;;;3.28;1.60;;;23.60;59.90;;;;;;5035921;28;20013;-60
2021/06/12 07:38:00;;;;;;;4.03;1.80;;;23.60;60.00;;;;;;5036112;28;20032;-59
2021/06/12 07:40:26;;;;;;;3.08;1.40;;;23.50;59.70;;;;;;5035833;28;20029;-60
2021/06/12 07:42:52;;;;;;;5.30;1.50;;;23.50;59.50;;;;;;5035937;28;20029;-60
2021/06/12 07:45:17;;;;;;;2.88;1.25;;;23.50;59.30;;;;;;5035642;28;20526;-60
2021/06/12 07:47:43;;;;;;;2.72;1.45;;;23.50;59.30;;;;;;5035647;28;20037;-60
2021/06/12 07:50:09;;;;;;;2.97;1.58;;;23.50;58.90;;;;;;5035695;28;20083;-59
2021/06/12 07:52:35;;;;;;;3.50;1.77;;;23.50;59.00;;;;;;5035858;28;20033;-60
2021/06/12 07:55:01;;;;;;;5.55;1.80;;;23.60;58.90;;;;;;5034307;28;20021;-60
2021/06/12 07:57:26;;;;;;;2.80;1.50;;;23.60;59.00;;;;;;5035401;28;20060;-60
2021/06/12 07:59:52;;;;;;;2.72;1.40;;;23.60;58.60;;;;;;5035657;28;20017;-60
2021/06/12 08:02:18;;;;;;;2.38;1.35;;;23.60;58.70;;;;;;5035358;28;20021;-60
2021/06/12 08:04:44;;;;;;;1.63;1.20;;;23.60;58.50;;;;;;5035348;28;20433;-60
2021/06/12 08:07:10;;;;;;;3.72;1.15;;;23.60;58.40;;;;;;5035417;28;20217;-60
2021/06/12 08:09:36;;;;;;;1.65;1.30;;;23.60;58.10;;;;;;5035125;28;20151;-60
2021/06/12 08:12:02;;;;;;;4.47;1.55;;;23.60;58.10;;;;;;5035076;28;20048;-61
2021/06/12 08:14:27;;;;;;;3.08;1.45;;;23.60;58.20;;;;;;5035100;28;20025;-61
2021/06/12 08:16:53;;;;;;;2.78;1.38;;;23.60;58.00;;;;;;5034926;28;20496;-64
2021/06/12 08:19:19;;;;;;;3.67;1.70;;;23.70;57.90;;;;;;5034867;28;20472;-61
2021/06/12 08:21:45;;;;;;;2.92;1.58;;;23.70;57.90;;;;;;5034812;28;20022;-63
2021/06/12 08:24:11;;;;;;;6.65;1.77;;;23.70;58.10;;;;;;5034829;28;20033;-61
2021/06/12 08:26:36;;;;;;;2.55;1.55;;;23.70;58.10;;;;;;5034722;28;20060;-61
2021/06/12 08:29:03;;;;;;;2.58;1.23;;;23.70;57.90;;;;;;5034560;28;20476;-60
2021/06/12 08:31:29;;;;;;;3.90;1.20;;;;;;;;;;5034772;28;20361;-61
2021/06/12 08:33:55;;;;;;;4.18;1.40;;;23.70;57.00;;;;;;5034637;28;20030;-60
2021/06/12 08:36:20;;;;;;;4.18;1.80;;;23.80;57.60;;;;;;5034287;28;20528;-61
2021/06/12 08:38:46;;;;;;;2.17;1.35;;;23.80;57.60;;;;;;5034632;28;20049;-61
2021/06/12 08:41:12;;;;;;;3.25;1.48;;;23.80;57.60;;;;;;5034490;28;20029;-60
2021/06/12 08:43:38;;;;;;;4.57;1.63;;;23.80;57.60;;;;;;5034421;28;20026;-60
2021/06/12 08:46:03;;;;;;;2.50;1.20;;;23.80;57.60;;;;;;5034563;28;20018;-60
2021/06/12 08:48:29;;;;;;;3.08;1.38;;;23.60;57.50;;;;;;5034537;28;20033;-60
2021/06/12 08:50:55;;;;;;;2.55;1.20;;;23.80;57.60;;;;;;5034266;28;20045;-61
2021/06/12 08:53:21;;;;;;;4.00;1.50;;;23.80;57.60;;;;;;5034531;28;20388;-61
2021/06/12 08:55:47;;;;;;;2.65;1.65;;;23.80;57.50;;;;;;5034498;28;20070;-60
2021/06/12 08:58:14;;;;;;;2.45;1.10;;;23.80;57.60;;;;;;5034122;28;20392;-60
2021/06/12 09:00:40;;;;;;;7.78;1.90;;;23.80;57.30;;;;;;5034122;28;20457;-60
2021/06/12 09:03:07;;;;;;;5.03;2.28;;;23.80;57.30;;;;;;5034134;28;20072;-60
2021/06/12 09:05:49;;;;;;;7.65;1.70;;;23.90;58.10;;;;;;5034006;28;20105;-60
2021/06/12 09:08:26;;;;;;;12.73;2.15;;;23.90;59.20;;;;;;5034217;28;20393;-60
2021/06/12 09:10:56;;;;;;;8.85;1.83;;;23.90;59.50;;;;;;5033985;28;20116;-60
2021/06/12 09:13:42;;;;;;;6.47;1.77;;;24.00;60.10;;;;;;5034250;28;20033;-60
2021/06/12 09:16:30;;;;;;;7.65;1.90;;;23.90;50.80;;;;;;5034125;28;20439;-60
2021/06/12 09:19:02;;;;;;;6.32;1.85;;;23.80;48.40;;;;;;5034078;28;20071;-60
2021/06/12 09:21:34;;;;;;;7.03;1.85;;;23.70;48.90;;;;;;5034081;28;20044;-60
2021/06/12 09:24:02;;;;;;;4.38;1.55;;;23.70;50.20;;;;;;5033749;28;20032;-60
2021/06/12 09:26:46;;;;;;;6.65;1.98;;;23.70;49.80;;;;;;5033402;28;20496;-60
2021/06/12 09:29:17;;;;;;;7.35;1.55;;;23.80;49.80;;;;;;5033588;28;20499;-60
2021/06/12 09:31:45;;;;;;;6.60;1.98;;;23.80;49.90;;;;;;5033623;28;20105;-60
2021/06/12 09:34:12;;;;;;;9.35;1.85;;;23.80;48.70;;;;;;5033810;28;20036;-60
2021/06/12 09:36:38;;;;;;;4.50;1.52;;;23.80;48.00;;;;;;5033542;28;20025;-60
2021/06/12 09:39:13;;;;;;;8.65;2.13;;;23.80;48.20;;;;;;5033794;28;20457;-60
2021/06/12 09:41:53;;;;;;;7.80;1.98;;;23.90;48.60;;;;;;5033738;28;20080;-60
2021/06/12 09:44:41;;;;;;;4.18;1.58;;;23.90;48.50;;;;;;5033395;28;20026;-60
2021/06/12 09:47:23;;;;;;;6.22;1.60;;;23.90;49.10;;;;;;5033070;28;20025;-60
2021/06/12 09:49:49;;;;;;;3.25;1.40;;;24.00;49.40;;;;;;5033022;28;20017;-61
2021/06/12 09:52:17;;;;;;;5.22;1.90;;;24.10;49.70;;;;;;5033462;28;20014;-63
2021/06/12 09:54:47;;;;;;;5.53;1.63;;;24.10;50.00;;;;;;5032939;28;20017;-56
2021/06/12 09:57:21;;;;;;;3.88;1.35;;;24.10;49.70;;;;;;5033527;28;20059;-58
2021/06/12 09:59:50;;;;;;;7.78;2.17;;;24.10;47.70;;;;;;5033436;28;20476;-55
2021/06/12 10:02:36;;;;;;;6.65;1.70;;;24.10;48.00;;;;;;5033365;28;20048;-57
2021/06/12 10:05:03;;;;;;;3.05;1.02;;;24.00;47.50;;;;;;5032967;28;20480;-55
2021/06/12 10:07:29;;;;;;;8.45;1.83;;;24.00;47.30;;;;;;5032831;28;20033;-57
2021/06/12 10:09:55;;;;;;;7.18;1.33;;;24.00;46.80;;;;;;5033290;28;20029;-57
2021/06/12 10:12:22;;;;;;;6.75;1.48;;;24.00;47.00;;;;;;5033144;28;20376;-57
2021/06/12 10:14:51;;;;;;;2.95;1.20;;;23.90;47.30;;;;;;5033149;28;20168;-57
2021/06/12 10:17:19;;;;;;;6.15;1.60;;;24.00;47.40;;;;;;5032853;28;20025;-57
2021/06/12 10:19:49;;;;;;;4.97;1.83;;;24.00;47.70;;;;;;5033022;28;20640;-57
2021/06/12 10:22:15;;;;;;;5.45;1.20;;;24.00;47.90;;;;;;5032892;28;20112;-57
2021/06/12 10:24:42;;;;;;;7.78;1.50;;;24.00;48.40;;;;;;5032879;28;20013;-58
2021/06/12 10:27:08;;;;;;;5.55;1.52;;;24.00;48.50;;;;;;5032364;28;20045;-57
2021/06/12 10:29:35;;;;;;;6.70;1.00;;;24.10;49.00;;;;;;5032748;28;20389;-58
2021/06/12 10:32:02;;;;;;;4.60;1.10;;;24.10;49.10;;;;;;5032445;28;20087;-57
2021/06/12 10:34:29;;;;;;;5.65;1.10;;;24.10;49.50;;;;;;5032436;28;20461;-57
2021/06/12 10:37:05;;;;;;;2.95;1.05;;;24.10;49.70;;;;;;5032823;28;20029;-58
2021/06/12 10:39:34;;;;;;;2.97;1.20;;;24.10;49.60;;;;;;5032265;28;20028;-58
2021/06/12 10:42:20;;;;;;;4.13;1.58;;;24.10;49.80;;;;;;5032459;28;20049;-57
2021/06/12 10:44:51;;;;;;;3.65;1.20;;;24.00;73.70;;;;;;5032537;28;20392;-58
2021/06/12 10:47:42;;;;;;;6.90;1.48;;;24.10;50.20;;;;;;5032596;28;20033;-56
2021/06/12 10:50:26;;;;;;;2.75;1.20;;;24.10;50.40;;;;;;5032558;28;20053;-57
2021/06/12 10:53:22;;;;;;;2.80;1.20;;;24.60;51.00;;;;;;5032521;28;20075;-58
2021/06/12 10:55:52;;;;;;;5.25;1.17;;;24.10;50.80;;;;;;5032547;28;20021;-58
2021/06/12 10:58:33;;;;;;;3.50;1.50;;;24.20;51.00;;;;;;5032739;28;20120;-57
2021/06/12 11:01:20;;;;;;;3.17;1.65;;;24.20;51.20;;;;;;5035815;28;20080;-58
2021/06/12 11:06:59;;;;;;;4.40;1.58;;;24.20;51.20;;;;;;5036282;28;20083;-57
2021/06/12 11:09:29;;;;;;;4.07;1.27;;;24.30;51.40;;;;;;5035852;28;20083;-57
2021/06/12 11:12:15;;;;;;;3.15;1.10;;;24.20;51.50;;;;;;5036191;28;20515;-56
2021/06/12 11:14:53;;;;;;;3.85;1.33;;;24.70;50.40;;;;;;5035927;28;20034;-57
2021/06/12 11:17:19;;;;;;;5.53;1.30;;;24.80;50.00;;;;;;5036086;28;20476;-56
2021/06/12 11:19:56;;;;;;;5.35;1.40;;;24.30;50.00;;;;;;5036386;28;20037;-58
2021/06/12 11:22:38;;;;;;;2.75;1.33;;;24.30;50.60;;;;;;5036247;28;20025;-58
2021/06/12 11:25:28;;;;;;;5.70;1.67;;;24.30;50.80;;;;;;5036031;28;20029;-58
2021/06/12 11:28:16;;;;;;;3.97;1.45;;;24.30;50.90;;;;;;5035910;28;20084;-55
2021/06/12 11:30:42;;;;;;;6.18;1.48;;;24.40;51.20;;;;;;5034332;28;20549;-59
2021/06/12 11:33:09;;;;;;;3.03;1.25;;;25.10;51.40;;;;;;5035604;28;20026;-56
2021/06/12 11:35:40;;;;;;;4.45;1.58;;;24.70;51.10;;;;;;5035917;28;20025;-57
2021/06/12 11:38:12;;;;;;;6.15;1.33;;;24.50;74.40;;;;;;5035516;28;20033;-56
2021/06/12 11:40:39;;;;;;;3.33;1.13;;;25.10;51.00;;;;;;5035740;28;20423;-56
2021/06/12 11:43:06;;;;;;;5.80;1.52;;;24.60;50.50;;;;;;5035792;28;20094;-57
2021/06/12 11:45:35;;;;;;;5.50;1.20;;;24.60;50.20;;;;;;5035343;28;20080;-57
2021/06/12 11:48:19;;;;;;;5.82;1.02;;;24.50;50.00;;;;;;5035679;28;20167;-56
2021/06/12 11:50:45;;;;;;;3.17;1.33;;;24.50;49.60;;;;;;5035624;28;20032;-57
2021/06/12 11:53:15;;;;;;;4.93;1.30;;;24.60;49.10;;;;;;5035569;28;20368;-56
2021/06/12 11:55:42;;;;;;;4.30;1.10;;;24.60;48.80;;;;;;5033882;28;20484;-54
2021/06/12 11:58:07;;;;;;;2.28;1.10;;;24.60;48.60;;;;;;5035499;28;20048;-55
2021/06/12 12:00:35;;;;;;;4.65;1.05;;;24.60;48.70;;;;;;5035161;28;20022;-57
2021/06/12 12:03:08;;;;;;;6.80;1.00;;;24.60;48.80;;;;;;5035424;28;20022;-57
2021/06/12 12:05:38;;;;;;;10.45;1.40;;;24.60;48.70;;;;;;5035376;28;20060;-56
2021/06/12 12:08:06;;;;;;;;;;;24.60;48.50;;;;;;5035499;28;20034;-57
2021/06/12 12:10:32;;;;;;;7.05;1.52;;;24.60;48.40;;;;;;5034909;28;19995;-56
2021/06/12 12:12:59;;;;;;;4.50;0.95;;;25.30;48.80;;;;;;5033255;28;20600;-57
2021/06/12 12:15:35;;;;;;;4.63;1.88;;;24.70;48.60;;;;;;5035206;28;20108;-57
2021/06/12 12:18:05;;;;;;;7.97;1.33;;;24.70;46.80;;;;;;5035308;28;20029;-57
2021/06/12 12:20:46;;;;;;;4.45;1.05;;;24.70;47.20;;;;;;5035216;28;20024;-56
2021/06/12 12:23:26;;;;;;;3.03;1.10;;;24.70;47.70;;;;;;5035325;28;20026;-56
2021/06/12 12:26:08;;;;;;;5.43;1.40;;;24.70;48.20;;;;;;5034936;28;20037;-56
2021/06/12 12:28:51;;;;;;;2.30;1.00;;;24.70;48.40;;;;;;5034553;28;20345;-57
2021/06/12 12:31:18;;;;;;;6.25;1.40;;;24.70;48.60;;;;;;5035063;28;20105;-55
2021/06/12 12:33:49;;;;;;;2.75;0.93;;;24.80;48.70;;;;;;5035003;28;20025;-56
2021/06/12 12:36:15;;;;;;;2.78;1.05;;;25.10;49.20;;;;;;5034987;28;20029;-56
2021/06/12 12:38:42;;;;;;;2.95;1.33;;;24.90;49.30;;;;;;5033304;28;20037;-58
2021/06/12 12:41:10;;;;;;;2.03;0.95;;;25.30;49.60;;;;;;5034903;28;20031;-57
2021/06/12 12:43:37;;;;;;;3.53;0.88;;;24.80;49.70;;;;;;5035002;28;20412;-57
2021/06/12 12:46:09;;;;;;;1.90;0.82;;;24.90;49.80;;;;;;5034843;28;20025;-56
2021/06/12 12:48:35;;;;;;;4.40;1.70;;;24.80;49.90;;;;;;5033388;28;20040;-57
2021/06/12 12:51:01;;;;;;;4.05;1.10;;;25.50;50.40;;;;;;5034828;28;20017;-57
2021/06/12 12:53:35;;;;;;;5.47;1.10;;;24.80;50.20;;;;;;5034718;28;20072;-57
2021/06/12 12:56:03;;;;;;;2.80;1.35;;;24.80;50.10;;;;;;5034465;28;20057;-56
2021/06/12 12:58:30;;;;;;;4.57;0.95;;;24.80;50.10;;;;;;5034637;28;20067;-56